Time;durP1;ratioP1;P1;durP2;ratioP2;P2;SDS_P1;SDS_P2;PMS_P1;PMS_P2;Temp;Humidity;BMP_temperature;BMP_pressure;BME280_temperature;BME280_humidity;BME280_pressure;Samples;Min_cycle;Max_cycle;Signal;HPM_P1;HPM_P2
2021/04/30 00:00:53;;;;;;;29.80;10.77;;;7.90;99.90;;;;;;4442300;32;20221;-57
2021/04/30 00:03:20;;;;;;;30.00;11.17;;;7.80;99.90;;;;;;4435393;32;20150;-58
2021/04/30 00:05:46;;;;;;;19.27;9.73;;;7.90;99.90;;;;;;4439841;32;20335;-60
2021/04/30 00:08:13;;;;;;;21.93;10.53;;;7.90;99.90;;;;;;4448680;32;20158;-59
2021/04/30 00:10:40;;;;;;;27.43;10.30;;;7.90;99.90;;;;;;4445884;32;20151;-60
2021/04/30 00:13:08;;;;;;;24.90;10.73;;;7.90;99.90;;;;;;4442639;32;20189;-59
2021/04/30 00:15:35;;;;;;;27.93;11.07;;;7.90;99.90;;;;;;4440713;32;20631;-59
2021/04/30 00:18:05;;;;;;;22.80;10.53;;;7.90;99.90;;;;;;4451489;32;20268;-58
2021/04/30 00:20:31;;;;;;;26.57;11.00;;;7.90;99.90;;;;;;4443596;32;20166;-59
2021/04/30 00:23:01;;;;;;;25.93;11.27;;;7.90;99.90;;;;;;4440111;32;20151;-59
2021/04/30 00:25:27;;;;;;;29.30;11.57;;;7.90;99.90;;;;;;4447659;32;20200;-58
2021/04/30 00:27:54;;;;;;;30.00;11.20;;;7.90;99.90;;;;;;4441926;32;20229;-60
2021/04/30 00:30:22;;;;;;;20.00;10.50;;;7.90;99.90;;;;;;4442172;32;20327;-58
2021/04/30 00:32:48;;;;;;;27.47;10.33;;;7.90;99.90;;;;;;4421255;32;20469;-60
2021/04/30 00:35:15;;;;;;;34.10;11.40;;;7.90;99.90;;;;;;4421348;32;20182;-59
2021/04/30 00:37:41;;;;;;;27.23;10.53;;;7.90;99.90;;;;;;4420654;32;20155;-60
2021/04/30 00:40:09;;;;;;;26.90;9.97;;;7.90;99.90;;;;;;4421017;32;20222;-58
2021/04/30 00:42:36;;;;;;;26.23;10.33;;;7.90;99.90;;;;;;4420436;32;20140;-58
2021/04/30 00:45:03;;;;;;;27.60;10.07;;;8.00;99.90;;;;;;4421474;32;20181;-58
2021/04/30 00:47:35;;;;;;;34.03;11.10;;;7.90;99.90;;;;;;4421965;32;20151;-60
2021/04/30 00:50:02;;;;;;;22.77;10.37;;;7.90;99.90;;;;;;4422443;32;20143;-57
2021/04/30 00:52:31;;;;;;;26.10;10.80;;;7.90;99.90;;;;;;4419741;32;20155;-58
2021/04/30 00:55:00;;;;;;;26.93;10.33;;;7.80;99.90;;;;;;4420849;32;20481;-59
2021/04/30 00:57:27;;;;;;;23.97;9.73;;;7.90;99.90;;;;;;4407508;32;20144;-57
2021/04/30 00:59:53;;;;;;;20.40;9.17;;;7.90;99.90;;;;;;4418895;32;20563;-58
2021/04/30 01:02:20;;;;;;;28.10;11.20;;;7.90;99.90;;;;;;4420778;32;20190;-58
2021/04/30 01:04:47;;;;;;;27.00;11.03;;;7.90;99.90;;;;;;4421858;32;20167;-58
2021/04/30 01:07:13;;;;;;;20.57;9.93;;;7.80;99.90;;;;;;4420009;32;20503;-58
2021/04/30 01:09:40;;;;;;;28.00;11.17;;;7.80;99.90;;;;;;4420136;32;20363;-58
2021/04/30 01:12:07;;;;;;;26.30;10.03;;;7.90;99.90;;;;;;4419985;32;20167;-58
2021/04/30 01:14:33;;;;;;;24.63;9.77;;;7.80;99.90;;;;;;4419783;32;20218;-58
2021/04/30 01:17:02;;;;;;;19.43;9.13;;;7.90;99.90;;;;;;4420838;32;20148;-58
2021/04/30 01:19:30;;;;;;;23.90;9.63;;;7.90;99.90;;;;;;4419742;32;20635;-59
2021/04/30 01:22:00;;;;;;;25.57;9.23;;;8.00;99.90;;;;;;4420001;32;20151;-57
2021/04/30 01:24:26;;;;;;;23.63;9.63;;;8.00;99.90;;;;;;4420088;32;20567;-56
2021/04/30 01:26:53;;;;;;;28.83;10.13;;;8.10;99.90;;;;;;4419895;32;20151;-61
2021/04/30 01:29:20;;;;;;;22.37;8.60;;;8.00;99.90;;;;;;4414129;32;20230;-60
2021/04/30 01:31:48;;;;;;;30.53;10.33;;;8.00;99.90;;;;;;4436874;32;20163;-56
2021/04/30 01:34:14;;;;;;;23.10;9.77;;;8.10;99.90;;;;;;4452105;32;20202;-57
2021/04/30 01:36:41;;;;;;;18.23;8.13;;;8.10;99.90;;;;;;4445266;32;20288;-58
2021/04/30 01:39:12;;;;;;;28.63;10.37;;;8.10;99.90;;;;;;4438778;32;20234;-57
2021/04/30 01:41:38;;;;;;;28.13;9.87;;;8.10;99.90;;;;;;4444106;32;20147;-57
2021/04/30 01:44:07;;;;;;;27.50;9.77;;;8.10;99.90;;;;;;4437186;32;20182;-60
2021/04/30 01:46:33;;;;;;;32.73;10.47;;;8.10;99.90;;;;;;4440545;32;20212;-55
2021/04/30 01:49:00;;;;;;;21.03;9.43;;;8.10;99.90;;;;;;4438780;32;20257;-61
2021/04/30 01:51:26;;;;;;;24.70;11.00;;;8.00;99.90;;;;;;4447383;32;20496;-61
2021/04/30 01:53:53;;;;;;;29.87;10.47;;;8.00;99.90;;;;;;4441247;32;20166;-58
2021/04/30 01:56:20;;;;;;;27.73;10.73;;;8.00;99.90;;;;;;4445608;32;20158;-58
2021/04/30 01:58:46;;;;;;;28.40;11.13;;;8.00;99.90;;;;;;4436199;32;20159;-58
2021/04/30 02:01:13;;;;;;;25.60;9.93;;;8.00;99.90;;;;;;4445003;32;20206;-58
2021/04/30 02:03:40;;;;;;;24.07;10.73;;;8.10;99.90;;;;;;4441510;32;20151;-57
2021/04/30 02:06:08;;;;;;;27.37;11.33;;;8.10;99.90;;;;;;4447730;32;20190;-56
2021/04/30 02:08:35;;;;;;;23.67;10.73;;;8.00;99.90;;;;;;4446731;32;20470;-57
2021/04/30 02:11:01;;;;;;;22.03;9.70;;;8.00;99.90;;;;;;4448495;32;20202;-59
2021/04/30 02:13:28;;;;;;;32.20;10.70;;;8.10;99.90;;;;;;4447522;32;20261;-61
2021/04/30 02:15:56;;;;;;;24.47;10.60;;;8.10;99.90;;;;;;4445474;32;20151;-58
2021/04/30 02:18:24;;;;;;;27.50;11.53;;;8.10;99.90;;;;;;4436137;32;20197;-59
2021/04/30 02:20:54;;;;;;;24.60;10.57;;;8.10;99.90;;;;;;4438091;32;20249;-59
2021/04/30 02:23:27;;;;;;;28.00;10.53;;;8.00;99.90;;;;;;4449199;32;20213;-58
2021/04/30 02:25:53;;;;;;;25.63;10.30;;;8.00;99.90;;;;;;4444509;32;20273;-58
2021/04/30 02:28:19;;;;;;;22.53;9.93;;;8.00;99.90;;;;;;4440727;32;20488;-59
2021/04/30 02:30:47;;;;;;;33.03;11.20;;;8.10;99.90;;;;;;4437949;32;20197;-59
2021/04/30 02:33:13;;;;;;;24.47;10.57;;;8.20;99.90;;;;;;4438898;32;20209;-59
2021/04/30 02:35:41;;;;;;;24.00;9.43;;;8.10;99.90;;;;;;4437890;32;20503;-60
2021/04/30 02:38:10;;;;;;;21.90;11.03;;;8.20;99.90;;;;;;4439525;32;20593;-60
2021/04/30 02:40:38;;;;;;;25.93;11.40;;;8.10;99.90;;;;;;4445461;32;20214;-58
2021/04/30 02:43:09;;;;;;;30.70;11.10;;;8.10;99.90;;;;;;4434589;32;20564;-57
2021/04/30 02:45:36;;;;;;;29.27;11.83;;;8.00;99.90;;;;;;4438269;32;20159;-59
2021/04/30 02:48:09;;;;;;;24.73;10.90;;;8.10;99.90;;;;;;4447840;32;20221;-61
2021/04/30 02:50:36;;;;;;;23.40;10.90;;;8.10;99.90;;;;;;4448742;32;20147;-60
2021/04/30 02:53:02;;;;;;;23.97;11.50;;;8.10;99.90;;;;;;4441198;32;20144;-60
2021/04/30 02:55:29;;;;;;;20.37;12.27;;;8.10;99.90;;;;;;4444954;32;20192;-60
2021/04/30 02:57:57;;;;;;;26.00;12.53;;;8.10;99.90;;;;;;4440637;32;20264;-60
2021/04/30 03:00:26;;;;;;;31.93;12.23;;;8.10;99.90;;;;;;4436971;32;20589;-57
2021/04/30 03:02:53;;;;;;;25.27;11.47;;;8.10;99.90;;;;;;4444407;32;20218;-58
2021/04/30 03:05:21;;;;;;;32.93;13.33;;;8.10;99.90;;;;;;4445874;32;20213;-58
2021/04/30 03:07:48;;;;;;;32.27;13.17;;;8.10;99.90;;;;;;4437751;32;20206;-59
2021/04/30 03:10:15;;;;;;;25.50;11.47;;;8.10;99.90;;;;;;4441810;32;20151;-62
2021/04/30 03:12:43;;;;;;;29.67;13.30;;;8.10;99.90;;;;;;4438368;32;20204;-58
2021/04/30 03:15:14;;;;;;;28.53;12.80;;;8.10;99.90;;;;;;4439393;32;20581;-59
2021/04/30 03:17:41;;;;;;;27.87;13.53;;;8.10;99.90;;;;;;4447401;32;20597;-62
2021/04/30 03:20:08;;;;;;;29.57;12.67;;;8.10;99.90;;;;;;4448492;32;20372;-58
2021/04/30 03:22:35;;;;;;;22.33;13.07;;;8.10;99.90;;;;;;4441990;32;20317;-58
2021/04/30 03:25:03;;;;;;;23.73;12.37;;;8.10;99.90;;;;;;4438074;32;20192;-59
2021/04/30 03:27:29;;;;;;;31.67;14.00;;;8.10;99.90;;;;;;4448131;32;20155;-60
2021/04/30 03:29:56;;;;;;;27.30;12.77;;;8.20;99.90;;;;;;4451057;32;20150;-61
2021/04/30 03:32:23;;;;;;;34.00;13.20;;;8.20;99.90;;;;;;4444516;32;20226;-58
2021/04/30 03:34:49;;;;;;;28.10;13.00;;;8.20;99.90;;;;;;4446378;32;20205;-61
2021/04/30 03:37:15;;;;;;;29.30;13.73;;;8.20;99.90;;;;;;4438637;32;20616;-60
2021/04/30 03:39:42;;;;;;;30.87;14.90;;;8.10;99.90;;;;;;4437329;32;20207;-58
2021/04/30 03:42:09;;;;;;;29.17;14.17;;;8.10;99.90;;;;;;4441712;32;20502;-61
2021/04/30 03:44:37;;;;;;;32.03;15.27;;;8.10;99.90;;;;;;4448623;32;20662;-57
2021/04/30 03:47:04;;;;;;;45.27;17.33;;;8.10;99.90;;;;;;4451505;32;20202;-58
2021/04/30 03:49:30;;;;;;;34.20;15.37;;;8.10;99.90;;;;;;4448558;32;20159;-56
2021/04/30 03:51:56;;;;;;;37.80;17.03;;;8.10;99.90;;;;;;4439381;32;20151;-62
2021/04/30 03:54:23;;;;;;;33.80;14.90;;;8.00;99.90;;;;;;4450547;32;20177;-60
2021/04/30 03:56:50;;;;;;;38.30;18.33;;;8.00;99.90;;;;;;4447237;32;20247;-58
2021/04/30 03:59:16;;;;;;;33.33;18.20;;;7.90;99.90;;;;;;4438458;32;20151;-61
2021/04/30 04:01:43;;;;;;;43.00;18.57;;;7.80;99.90;;;;;;4440535;32;20680;-60
2021/04/30 04:04:10;;;;;;;44.60;19.00;;;7.90;99.90;;;;;;4450584;32;20222;-61
2021/04/30 04:06:36;;;;;;;47.47;21.17;;;7.90;99.90;;;;;;4440681;32;20229;-61
2021/04/30 04:09:03;;;;;;;33.67;19.10;;;7.90;99.90;;;;;;4449962;32;20151;-57
2021/04/30 04:11:34;;;;;;;27.83;16.50;;;7.90;99.90;;;;;;4438302;32;20227;-61
2021/04/30 04:14:01;;;;;;;41.23;21.93;;;8.00;99.90;;;;;;4440495;32;20223;-60
2021/04/30 04:16:28;;;;;;;30.73;18.13;;;8.00;99.90;;;;;;4441558;32;20285;-60
2021/04/30 04:18:54;;;;;;;43.17;23.43;;;7.90;99.90;;;;;;4438698;32;20200;-60
2021/04/30 04:21:20;;;;;;;39.77;21.13;;;8.00;99.90;;;;;;4449063;32;20230;-59
2021/04/30 04:23:46;;;;;;;40.57;19.47;;;8.00;99.90;;;;;;4453575;32;20177;-62
2021/04/30 04:26:13;;;;;;;34.30;19.50;;;8.10;99.90;;;;;;4445731;32;20174;-60
2021/04/30 04:28:39;;;;;;;36.37;20.57;;;8.00;99.90;;;;;;4442533;32;20595;-60
2021/04/30 04:31:06;;;;;;;54.10;23.70;;;8.00;99.90;;;;;;4451723;32;20166;-60
2021/04/30 04:33:35;;;;;;;36.47;20.00;;;7.90;99.90;;;;;;4439058;32;20264;-60
2021/04/30 04:36:01;;;;;;;34.73;19.47;;;8.00;99.90;;;;;;4440136;32;20619;-60
2021/04/30 04:38:28;;;;;;;39.63;18.70;;;8.00;99.90;;;;;;4448888;32;20295;-60
2021/04/30 04:40:54;;;;;;;46.33;23.80;;;8.10;99.90;;;;;;4450386;32;20151;-61
2021/04/30 04:43:26;;;;;;;44.63;22.33;;;8.00;99.90;;;;;;4439894;32;20230;-60
2021/04/30 04:45:52;;;;;;;36.13;22.17;;;8.00;99.90;;;;;;4447204;32;20174;-61
2021/04/30 04:48:19;;;;;;;36.10;22.37;;;8.00;99.90;;;;;;4449143;32;20190;-61
2021/04/30 04:50:48;;;;;;;38.90;21.13;;;8.00;99.90;;;;;;4446873;32;20194;-61
2021/04/30 04:53:14;;;;;;;54.43;26.87;;;8.10;99.90;;;;;;4438613;32;20222;-61
2021/04/30 04:55:41;;;;;;;34.97;22.87;;;8.00;99.90;;;;;;4438599;32;20210;-59
2021/04/30 04:58:07;;;;;;;49.73;25.33;;;8.00;99.90;;;;;;4439186;32;20642;-59
2021/04/30 05:00:36;;;;;;;42.03;26.27;;;8.10;99.90;;;;;;4444423;32;20230;-58
2021/04/30 05:03:04;;;;;;;42.43;25.90;;;8.00;99.90;;;;;;4439812;32;20169;-63
2021/04/30 05:05:31;;;;;;;43.93;27.13;;;8.00;99.90;;;;;;4448997;32;20305;-62
2021/04/30 05:07:58;;;;;;;54.20;29.67;;;8.00;99.90;;;;;;4444024;32;20205;-62
2021/04/30 05:10:24;;;;;;;60.37;32.17;;;8.00;99.90;;;;;;4443253;32;20274;-64
2021/04/30 05:12:52;;;;;;;52.37;29.00;;;8.00;99.90;;;;;;4447901;32;20234;-62
2021/04/30 05:15:20;;;;;;;55.10;32.03;;;7.90;99.90;;;;;;4442190;32;20174;-63
2021/04/30 05:17:46;;;;;;;49.50;30.73;;;7.90;99.90;;;;;;4441667;32;20580;-61
2021/04/30 05:20:13;;;;;;;62.73;33.77;;;7.90;99.90;;;;;;4447707;32;20551;-60
2021/04/30 05:22:41;;;;;;;52.80;30.00;;;7.80;99.90;;;;;;4445390;32;20165;-64
2021/04/30 05:25:11;;;;;;;53.50;33.70;;;7.80;99.90;;;;;;4440681;32;20179;-61
2021/04/30 05:27:40;;;;;;;53.93;30.13;;;7.80;99.90;;;;;;4441861;32;20510;-59
2021/04/30 05:30:08;;;;;;;50.13;28.50;;;7.80;99.90;;;;;;4445216;32;20206;-61
2021/04/30 05:32:34;;;;;;;46.77;28.13;;;7.80;99.90;;;;;;4436905;32;20181;-60
2021/04/30 05:35:03;;;;;;;54.87;31.53;;;7.80;99.90;;;;;;4437001;32;20218;-63
2021/04/30 05:37:29;;;;;;;46.23;29.03;;;7.80;99.90;;;;;;4438796;32;20147;-62
2021/04/30 05:39:57;;;;;;;52.30;26.77;;;7.90;99.90;;;;;;4442833;32;20558;-60
2021/04/30 05:42:24;;;;;;;56.13;32.73;;;7.90;99.90;;;;;;4451335;32;20150;-63
2021/04/30 05:44:50;;;;;;;52.93;31.40;;;7.90;99.90;;;;;;4444516;32;20230;-62
2021/04/30 05:47:16;;;;;;;56.47;32.43;;;7.90;99.90;;;;;;4443686;32;20167;-59
2021/04/30 05:49:43;;;;;;;49.60;30.83;;;7.90;99.90;;;;;;4446562;32;20234;-59
2021/04/30 05:52:13;;;;;;;45.60;29.87;;;7.90;99.90;;;;;;4449149;32;20218;-59
2021/04/30 05:54:39;;;;;;;57.17;34.17;;;7.90;99.90;;;;;;4450606;32;20174;-61
2021/04/30 05:57:07;;;;;;;44.37;30.03;;;7.90;99.90;;;;;;4446308;32;20279;-61
2021/04/30 05:59:33;;;;;;;55.03;30.50;;;7.90;99.90;;;;;;4438169;32;20147;-61
2021/04/30 06:01:59;;;;;;;62.00;33.87;;;7.90;99.90;;;;;;4439052;32;20229;-62
2021/04/30 06:04:26;;;;;;;52.27;32.47;;;7.90;99.90;;;;;;4442926;32;20229;-61
2021/04/30 06:06:52;;;;;;;50.80;30.37;;;7.90;99.90;;;;;;4441865;32;20174;-63
2021/04/30 06:09:19;;;;;;;58.50;33.60;;;8.10;99.90;;;;;;4445765;32;20146;-63
2021/04/30 06:11:45;;;;;;;60.43;33.83;;;8.10;99.90;;;;;;4443265;32;20213;-60
2021/04/30 06:14:14;;;;;;;62.17;35.07;;;7.90;99.90;;;;;;4442845;32;20151;-61
2021/04/30 06:16:41;;;;;;;67.27;35.93;;;8.10;99.90;;;;;;4442728;32;20211;-62
2021/04/30 06:19:08;;;;;;;62.87;38.37;;;8.10;99.90;;;;;;4441008;32;20654;-64
2021/04/30 06:21:35;;;;;;;51.27;34.17;;;8.00;99.90;;;;;;4440195;32;20175;-61
2021/04/30 06:24:01;;;;;;;57.73;35.33;;;8.00;99.90;;;;;;4440723;32;20210;-60
2021/04/30 06:26:28;;;;;;;46.97;31.30;;;8.10;99.90;;;;;;4443559;32;20183;-60
2021/04/30 06:28:54;;;;;;;54.33;32.57;;;8.10;99.90;;;;;;4442659;32;20689;-63
2021/04/30 06:31:22;;;;;;;50.30;33.17;;;8.10;99.90;;;;;;4442507;32;20233;-64
2021/04/30 06:33:48;;;;;;;53.77;32.50;;;8.20;99.90;;;;;;4443076;32;20192;-64
2021/04/30 06:36:15;;;;;;;47.87;30.30;;;8.10;99.90;;;;;;4442588;32;20226;-62
2021/04/30 06:38:41;;;;;;;50.23;30.30;;;8.00;99.90;;;;;;4445828;32;20204;-59
2021/04/30 06:41:07;;;;;;;54.10;34.83;;;8.10;99.90;;;;;;4444638;32;20627;-61
2021/04/30 06:43:34;;;;;;;49.37;34.53;;;8.10;99.90;;;;;;4443769;32;20159;-60
2021/04/30 06:46:00;;;;;;;46.90;32.60;;;8.20;99.90;;;;;;4442003;32;20193;-61
2021/04/30 06:48:27;;;;;;;46.87;31.47;;;8.10;99.90;;;;;;4440634;32;20230;-62
2021/04/30 06:50:53;;;;;;;44.00;32.33;;;8.20;99.90;;;;;;4441679;32;20225;-61
2021/04/30 06:53:19;;;;;;;50.03;32.17;;;8.20;99.90;;;;;;4441964;32;20210;-62
2021/04/30 06:55:46;;;;;;;41.73;29.57;;;8.20;99.90;;;;;;4443150;32;20222;-64
2021/04/30 06:58:12;;;;;;;44.10;31.47;;;8.20;99.90;;;;;;4443188;32;20171;-62
2021/04/30 07:00:39;;;;;;;50.80;31.90;;;8.30;99.90;;;;;;4440616;32;20234;-63
2021/04/30 07:03:06;;;;;;;51.00;32.67;;;8.30;99.90;;;;;;4439465;32;20167;-65
2021/04/30 07:05:35;;;;;;;42.27;29.83;;;8.30;99.90;;;;;;4441765;32;20147;-64
2021/04/30 07:08:03;;;;;;;44.97;28.40;;;8.30;99.90;;;;;;4443280;32;20170;-61
2021/04/30 07:10:31;;;;;;;40.43;29.43;;;8.30;99.90;;;;;;4445135;32;20163;-63
2021/04/30 07:12:58;;;;;;;48.50;29.57;;;8.30;99.90;;;;;;4439710;32;20201;-63
2021/04/30 07:15:24;;;;;;;46.37;29.90;;;8.30;99.90;;;;;;4442941;32;20611;-62
2021/04/30 07:17:51;;;;;;;46.60;30.80;;;8.30;99.90;;;;;;4442065;32;20232;-63
2021/04/30 07:20:17;;;;;;;38.13;29.27;;;8.20;99.90;;;;;;4443927;32;20166;-62
2021/04/30 07:22:44;;;;;;;42.57;26.87;;;8.30;99.90;;;;;;4443102;32;20645;-65
2021/04/30 07:25:11;;;;;;;44.40;30.75;;;8.40;99.90;;;;;;4398168;32;1216239;-63
2021/04/30 07:27:39;;;;;;;41.27;28.27;;;8.40;99.90;;;;;;4428375;32;20205;-61
2021/04/30 07:30:06;;;;;;;42.90;29.80;;;8.50;99.90;;;;;;4425573;32;20143;-64
2021/04/30 07:32:32;;;;;;;39.30;27.37;;;8.50;99.90;;;;;;4423815;32;20147;-65
2021/04/30 07:34:59;;;;;;;39.03;29.03;;;8.60;99.90;;;;;;4426848;32;20170;-63
2021/04/30 07:37:25;;;;;;;39.77;27.77;;;8.50;99.90;;;;;;4429317;32;20219;-64
2021/04/30 07:39:52;;;;;;;36.33;25.00;;;8.60;99.90;;;;;;4424623;32;20223;-63
2021/04/30 07:42:19;;;;;;;43.73;29.50;;;8.60;99.90;;;;;;4425714;32;20150;-63
2021/04/30 07:44:46;;;;;;;40.87;28.77;;;8.60;99.90;;;;;;4428984;32;20274;-64
2021/04/30 07:47:13;;;;;;;43.80;30.33;;;8.70;99.90;;;;;;4427203;32;20152;-64
2021/04/30 07:49:41;;;;;;;45.47;30.13;;;8.80;99.90;;;;;;4424576;32;20152;-64
2021/04/30 07:52:09;;;;;;;40.67;30.40;;;8.80;99.90;;;;;;4426771;32;20162;-63
2021/04/30 07:54:35;;;;;;;39.83;29.37;;;8.80;99.90;;;;;;4424960;32;20227;-62
2021/04/30 07:57:05;;;;;;;41.53;30.17;;;8.90;99.90;;;;;;4427413;32;20230;-61
2021/04/30 07:59:31;;;;;;;43.80;29.60;;;8.90;99.90;;;;;;4423934;32;20152;-62
2021/04/30 08:01:58;;;;;;;42.33;28.57;;;8.90;99.90;;;;;;4428231;32;20636;-64
2021/04/30 08:04:24;;;;;;;41.27;28.50;;;8.90;99.90;;;;;;4427221;32;20256;-64
2021/04/30 08:06:50;;;;;;;41.60;29.40;;;8.80;99.90;;;;;;4425922;32;20180;-62
2021/04/30 08:09:17;;;;;;;44.70;29.87;;;8.80;99.90;;;;;;4426154;32;20151;-64
2021/04/30 08:11:43;;;;;;;39.77;30.70;;;8.70;99.90;;;;;;4425768;32;20190;-60
2021/04/30 08:14:14;;;;;;;44.93;32.57;;;8.70;99.90;;;;;;4426984;32;20298;-64
2021/04/30 08:16:42;;;;;;;44.57;31.93;;;8.70;99.90;;;;;;4427160;32;20475;-61
2021/04/30 08:19:09;;;;;;;42.17;31.17;;;8.70;99.90;;;;;;4428028;32;20172;-62
2021/04/30 08:21:36;;;;;;;42.40;30.50;;;8.80;99.90;;;;;;4428192;32;20290;-62
2021/04/30 08:24:03;;;;;;;54.50;34.23;;;8.80;99.90;;;;;;4427400;32;20175;-61
2021/04/30 08:26:30;;;;;;;47.73;32.17;;;8.90;99.90;;;;;;4428139;32;20151;-62
2021/04/30 08:28:56;;;;;;;43.50;31.83;;;8.90;99.90;;;;;;4425220;32;20682;-65
2021/04/30 08:31:23;;;;;;;48.03;32.67;;;8.80;99.90;;;;;;4430527;32;20229;-64
2021/04/30 08:33:50;;;;;;;41.57;31.13;;;8.80;99.90;;;;;;4432478;32;20159;-61
2021/04/30 08:36:17;;;;;;;46.10;31.00;;;8.80;99.90;;;;;;4426040;32;20152;-64
2021/04/30 08:38:43;;;;;;;41.57;29.23;;;8.90;99.90;;;;;;4430727;32;20162;-61
2021/04/30 08:41:09;;;;;;;37.30;28.23;;;8.90;99.90;;;;;;4429964;32;20211;-64
2021/04/30 08:43:37;;;;;;;42.27;29.07;;;8.80;99.90;;;;;;4429124;32;20172;-61
2021/04/30 08:46:04;;;;;;;43.07;29.03;;;8.80;99.90;;;;;;4429672;32;20672;-66
2021/04/30 08:48:32;;;;;;;39.17;29.53;;;8.80;99.90;;;;;;4428164;32;20176;-65
2021/04/30 08:50:59;;;;;;;36.63;28.93;;;8.90;99.90;;;;;;4430116;32;20264;-65
2021/04/30 08:53:26;;;;;;;46.27;31.90;;;8.90;99.90;;;;;;4428360;32;20507;-63
2021/04/30 08:55:58;;;;;;;37.63;28.97;;;8.90;99.90;;;;;;4426588;32;20298;-64
2021/04/30 08:58:33;;;;;;;46.87;31.40;;;8.80;99.90;;;;;;4429675;32;20139;-63
2021/04/30 09:01:00;;;;;;;42.80;33.03;;;8.80;99.90;;;;;;4433064;32;20490;-62
2021/04/30 09:03:27;;;;;;;38.67;29.60;;;8.70;99.90;;;;;;4435047;32;20163;-64
2021/04/30 09:05:56;;;;;;;37.57;28.50;;;8.70;99.90;;;;;;4427098;32;20237;-64
2021/04/30 09:08:23;;;;;;;38.03;27.77;;;8.90;99.90;;;;;;4431117;32;20165;-64
2021/04/30 09:10:52;;;;;;;41.20;27.70;;;8.90;99.90;;;;;;4430935;32;20474;-61
2021/04/30 09:13:20;;;;;;;34.27;25.60;;;8.80;99.90;;;;;;4430869;32;20561;-61
2021/04/30 09:15:49;;;;;;;29.87;24.73;;;8.90;99.90;;;;;;4433314;32;20139;-62
2021/04/30 09:18:21;;;;;;;33.93;24.43;;;8.80;99.90;;;;;;4431127;32;20151;-62
2021/04/30 09:20:49;;;;;;;34.77;24.83;;;8.80;99.90;;;;;;4431599;32;20159;-64
2021/04/30 09:23:37;;;;;;;34.97;26.13;;;8.70;99.90;;;;;;4425995;32;20262;-65
2021/04/30 09:26:19;;;;;;;34.73;23.80;;;8.70;99.90;;;;;;4425515;32;20179;-63
2021/04/30 09:29:01;;;;;;;34.07;24.43;;;8.60;99.90;;;;;;4424058;32;20226;-63
2021/04/30 09:31:36;;;;;;;31.20;23.93;;;8.70;99.90;;;;;;4427788;32;20564;-62
2021/04/30 09:34:17;;;;;;;34.10;25.53;;;8.70;99.90;;;;;;4423881;32;20162;-64
2021/04/30 09:37:02;;;;;;;33.77;25.00;;;8.80;99.90;;;;;;4424516;32;20160;-60
2021/04/30 09:39:30;;;;;;;34.47;24.00;;;8.90;99.90;;;;;;4424982;32;20261;-62
2021/04/30 09:42:08;;;;;;;36.27;26.70;;;8.90;99.90;;;;;;4429220;32;20143;-63
2021/04/30 09:44:36;;;;;;;34.40;25.13;;;8.80;99.90;;;;;;4423645;32;20601;-62
2021/04/30 09:47:22;;;;;;;35.37;26.03;;;8.80;99.90;;;;;;4429640;32;20170;-62
2021/04/30 09:49:50;;;;;;;34.67;26.70;;;8.90;99.90;;;;;;4427854;32;20182;-61
2021/04/30 09:52:18;;;;;;;33.90;25.60;;;9.00;99.90;;;;;;4428117;32;20464;-62
2021/04/30 09:54:46;;;;;;;36.33;27.80;;;9.10;99.90;;;;;;4434979;32;20156;-62
2021/04/30 09:57:16;;;;;;;34.47;26.40;;;9.00;99.90;;;;;;4421642;32;20247;-60
2021/04/30 09:59:53;;;;;;;35.93;26.27;;;9.00;99.90;;;;;;4426784;32;20151;-63
2021/04/30 10:02:21;;;;;;;33.07;26.63;;;9.00;99.90;;;;;;4421464;32;20177;-63
2021/04/30 10:04:50;;;;;;;36.33;26.57;;;8.90;99.90;;;;;;4425598;32;20227;-63
2021/04/30 10:07:26;;;;;;;32.00;26.23;;;8.90;99.90;;;;;;4421729;32;20641;-65
2021/04/30 10:10:03;;;;;;;34.07;26.77;;;9.10;99.90;;;;;;4421550;32;20246;-63
2021/04/30 10:12:30;;;;;;;37.23;28.13;;;9.20;99.90;;;;;;4421539;32;20181;-62
2021/04/30 10:14:57;;;;;;;33.40;26.33;;;9.30;99.90;;;;;;4421870;32;20686;-62
2021/04/30 10:17:24;;;;;;;32.37;26.47;;;9.30;99.90;;;;;;4428997;32;20646;-61
2021/04/30 10:19:52;;;;;;;34.33;26.63;;;9.30;99.90;;;;;;4428737;32;20224;-64
2021/04/30 10:22:20;;;;;;;36.37;26.60;;;9.30;99.90;;;;;;4438549;32;20641;-61
2021/04/30 10:24:50;;;;;;;34.93;27.73;;;9.20;99.90;;;;;;4436044;32;20187;-64
2021/04/30 10:27:20;;;;;;;36.77;28.93;;;9.30;99.90;;;;;;4421047;32;20264;-63
2021/04/30 10:30:12;;;;;;;40.27;28.93;;;9.30;99.90;;;;;;4421191;32;20314;-62
2021/04/30 10:32:45;;;;;;;42.30;27.97;;;9.40;99.90;;;;;;4420997;32;20262;-61
2021/04/30 10:35:14;;;;;;;39.67;28.07;;;9.40;99.90;;;;;;4422584;32;20312;-62
2021/04/30 10:37:48;;;;;;;40.87;29.93;;;9.30;99.90;;;;;;4419452;32;20144;-63
2021/04/30 10:40:16;;;;;;;38.90;29.30;;;9.20;99.90;;;;;;4423152;32;20140;-63
2021/04/30 10:42:46;;;;;;;42.73;30.43;;;9.30;99.90;;;;;;4423536;32;20223;-60
2021/04/30 10:45:15;;;;;;;40.50;30.87;;;9.40;99.90;;;;;;4425393;32;20144;-61
2021/04/30 10:47:42;;;;;;;37.67;30.20;;;9.70;99.90;;;;;;4429017;32;20206;-65
2021/04/30 10:50:20;;;;;;;41.97;30.57;;;9.60;99.90;;;;;;4426521;32;20691;-64
2021/04/30 10:52:47;;;;;;;42.50;31.07;;;10.00;99.90;;;;;;4428124;32;20234;-62
2021/04/30 10:55:22;;;;;;;38.83;30.77;;;10.40;99.90;;;;;;4422398;32;20140;-64
2021/04/30 10:58:02;;;;;;;44.33;29.60;;;10.70;99.90;;;;;;4420970;32;20298;-61
2021/04/30 11:00:38;;;;;;;37.57;31.20;;;10.90;99.90;;;;;;4418408;32;20480;-60
2021/04/30 11:03:20;;;;;;;34.90;28.10;;;11.10;99.90;;;;;;4420665;32;20139;-64
2021/04/30 11:05:58;;;;;;;35.30;28.63;;;11.40;99.90;;;;;;4420816;32;20203;-63
2021/04/30 11:08:47;;;;;;;35.70;28.27;;;11.60;99.90;;;;;;4422283;32;20151;-64
2021/04/30 11:11:14;;;;;;;35.27;28.80;;;11.50;99.90;;;;;;4427176;32;20144;-61
2021/04/30 11:13:42;;;;;;;35.63;28.23;;;11.50;99.90;;;;;;4429486;32;20166;-59
2021/04/30 11:16:09;;;;;;;37.53;28.03;;;11.60;99.90;;;;;;4426818;32;20243;-63
2021/04/30 11:19:00;;;;;;;35.47;26.93;;;11.90;99.90;;;;;;4430918;32;20152;-63
2021/04/30 11:21:40;;;;;;;35.77;26.83;;;12.70;99.90;;;;;;4427441;32;20164;-62
2021/04/30 11:24:40;;;;;;;26.77;23.60;;;13.30;99.90;;;;;;4422270;32;20153;-63
2021/04/30 11:27:32;;;;;;;25.30;18.63;;;13.90;99.90;;;;;;4431667;32;20143;-62
2021/04/30 11:30:31;;;;;;;24.83;20.13;;;13.90;97.80;;;;;;4422297;32;20175;-60
2021/04/30 11:33:00;;;;;;;26.83;21.93;;;13.80;97.90;;;;;;4427143;32;20213;-64
2021/04/30 11:35:29;;;;;;;23.43;20.20;;;13.80;98.00;;;;;;4434170;32;20147;-64
2021/04/30 11:37:57;;;;;;;24.90;20.63;;;13.70;98.60;;;;;;4424397;32;20478;-63
2021/04/30 11:40:24;;;;;;;26.90;20.90;;;13.30;98.00;;;;;;4422156;32;20143;-61
2021/04/30 11:43:03;;;;;;;30.60;22.57;;;12.90;99.10;;;;;;4428493;32;20952;-65
2021/04/30 11:45:30;;;;;;;30.27;22.80;;;12.40;99.00;;;;;;4421100;32;20147;-63
2021/04/30 11:47:58;;;;;;;29.33;24.17;;;12.00;99.90;;;;;;4422582;32;20162;-63
2021/04/30 11:50:25;;;;;;;30.60;24.23;;;11.80;99.90;;;;;;4421387;32;20226;-62
2021/04/30 11:52:51;;;;;;;33.27;25.47;;;11.50;99.90;;;;;;4422833;32;20588;-63
2021/04/30 11:55:20;;;;;;;33.33;26.47;;;11.40;99.90;;;;;;4420480;32;20170;-61
2021/04/30 11:57:52;;;;;;;33.77;25.40;;;11.10;99.90;;;;;;4436035;32;20210;-60
2021/04/30 12:00:20;;;;;;;33.07;26.97;;;11.30;99.90;;;;;;4446467;32;20210;-61
2021/04/30 12:03:02;;;;;;;35.30;27.13;;;11.30;99.90;;;;;;4436663;32;20198;-61
2021/04/30 12:05:29;;;;;;;34.00;25.60;;;11.50;99.90;;;;;;4434190;32;20206;-59
2021/04/30 12:07:55;;;;;;;32.63;24.97;;;12.10;99.90;;;;;;4429264;32;20197;-63
2021/04/30 12:10:25;;;;;;;32.23;24.97;;;12.80;99.90;;;;;;4439555;32;20513;-62
2021/04/30 12:12:51;;;;;;;29.30;23.90;;;13.20;99.10;;;;;;4432501;32;20167;-64
2021/04/30 12:15:30;;;;;;;33.37;26.27;;;13.20;98.70;;;;;;4427726;32;20139;-60
2021/04/30 12:17:56;;;;;;;31.53;25.10;;;13.40;99.40;;;;;;4442475;32;20162;-63
2021/04/30 12:20:25;;;;;;;28.63;23.03;;;13.20;99.30;;;;;;4451995;32;20519;-61
2021/04/30 12:22:55;;;;;;;29.00;22.57;;;13.10;99.30;;;;;;4423850;32;20135;-61
2021/04/30 12:25:35;;;;;;;32.87;26.07;;;12.80;99.70;;;;;;4424853;32;20160;-58
2021/04/30 12:28:21;;;;;;;32.70;23.60;;;12.60;99.90;;;;;;4424317;32;20497;-63
2021/04/30 12:30:49;;;;;;;32.53;25.30;;;12.40;99.90;;;;;;4424530;32;20150;-62
2021/04/30 12:33:37;;;;;;;28.77;23.60;;;12.20;99.70;;;;;;4423656;32;20160;-60
2021/04/30 12:36:09;;;;;;;29.33;23.57;;;12.20;99.90;;;;;;4419722;32;20519;-65
2021/04/30 12:38:37;;;;;;;30.30;23.13;;;12.40;99.90;;;;;;4430849;32;20174;-62
2021/04/30 12:41:05;;;;;;;28.77;22.77;;;12.50;99.00;;;;;;4432484;32;20583;-60
2021/04/30 12:43:31;;;;;;;29.50;22.80;;;12.30;98.60;;;;;;4427225;32;20652;-64